sensor_id;sensor_type;location;lat;lon;timestamp;temperature;humidity
79513;SHT31;68962;51.980;5.678;2023-10-19T00:00:56;11.5;94.2
79513;SHT31;68962;51.980;5.678;2023-10-19T00:03:26;11.5;94.1
79513;SHT31;68962;51.980;5.678;2023-10-19T00:05:57;11.5;94.1
79513;SHT31;68962;51.980;5.678;2023-10-19T00:08:26;11.4;94.5
79513;SHT31;68962;51.980;5.678;2023-10-19T00:11:00;11.4;94.7
79513;SHT31;68962;51.980;5.678;2023-10-19T00:13:35;11.4;95.2
79513;SHT31;68962;51.980;5.678;2023-10-19T00:16:05;11.5;95.2
79513;SHT31;68962;51.980;5.678;2023-10-19T00:18:39;11.5;95.4
79513;SHT31;68962;51.980;5.678;2023-10-19T00:21:10;11.5;95.6
79513;SHT31;68962;51.980;5.678;2023-10-19T00:23:53;11.6;95.6
79513;SHT31;68962;51.980;5.678;2023-10-19T00:26:27;11.6;95.1
79513;SHT31;68962;51.980;5.678;2023-10-19T00:28:56;11.6;94.8
79513;SHT31;68962;51.980;5.678;2023-10-19T00:31:30;11.6;95.0
79513;SHT31;68962;51.980;5.678;2023-10-19T00:34:03;11.6;95.3
79513;SHT31;68962;51.980;5.678;2023-10-19T00:36:35;11.6;95.4
79513;SHT31;68962;51.980;5.678;2023-10-19T00:39:05;11.6;95.4
79513;SHT31;68962;51.980;5.678;2023-10-19T00:41:39;11.6;95.4
79513;SHT31;68962;51.980;5.678;2023-10-19T00:44:10;11.6;95.6
79513;SHT31;68962;51.980;5.678;2023-10-19T00:46:39;11.6;95.4
79513;SHT31;68962;51.980;5.678;2023-10-19T00:49:11;11.7;95.8
79513;SHT31;68962;51.980;5.678;2023-10-19T00:51:44;11.7;96.2
79513;SHT31;68962;51.980;5.678;2023-10-19T00:54:26;11.8;96.5
79513;SHT31;68962;51.980;5.678;2023-10-19T00:57:03;11.9;96.5
79513;SHT31;68962;51.980;5.678;2023-10-19T00:59:39;12.0;96.4
79513;SHT31;68962;51.980;5.678;2023-10-19T01:02:15;12.1;96.2
79513;SHT31;68962;51.980;5.678;2023-10-19T01:04:56;12.2;96.1
79513;SHT31;68962;51.980;5.678;2023-10-19T01:07:41;12.3;95.8
79513;SHT31;68962;51.980;5.678;2023-10-19T01:10:15;12.5;95.5
79513;SHT31;68962;51.980;5.678;2023-10-19T01:12:55;12.6;95.5
79513;SHT31;68962;51.980;5.678;2023-10-19T01:17:56;12.8;94.9
79513;SHT31;68962;51.980;5.678;2023-10-19T01:20:33;12.9;94.7
79513;SHT31;68962;51.980;5.678;2023-10-19T01:23:17;13.0;94.1
79513;SHT31;68962;51.980;5.678;2023-10-19T01:26:01;13.0;93.7
79513;SHT31;68962;51.980;5.678;2023-10-19T01:28:38;13.1;93.3
79513;SHT31;68962;51.980;5.678;2023-10-19T01:31:25;13.1;93.7
79513;SHT31;68962;51.980;5.678;2023-10-19T01:34:13;13.2;93.5
79513;SHT31;68962;51.980;5.678;2023-10-19T01:36:54;13.3;93.4
79513;SHT31;68962;51.980;5.678;2023-10-19T01:39:23;13.4;92.9
79513;SHT31;68962;51.980;5.678;2023-10-19T01:41:56;13.4;93.3
79513;SHT31;68962;51.980;5.678;2023-10-19T01:44:29;13.5;93.4
79513;SHT31;68962;51.980;5.678;2023-10-19T01:46:59;13.5;93.6
79513;SHT31;68962;51.980;5.678;2023-10-19T01:49:34;13.6;92.9
79513;SHT31;68962;51.980;5.678;2023-10-19T01:52:03;13.6;92.3
79513;SHT31;68962;51.980;5.678;2023-10-19T01:54:33;13.6;92.1
79513;SHT31;68962;51.980;5.678;2023-10-19T01:57:04;13.6;92.1
79513;SHT31;68962;51.980;5.678;2023-10-19T01:59:34;13.5;92.1
79513;SHT31;68962;51.980;5.678;2023-10-19T02:02:03;13.5;92.2
79513;SHT31;68962;51.980;5.678;2023-10-19T02:04:34;13.5;92.5
79513;SHT31;68962;51.980;5.678;2023-10-19T02:07:04;13.5;92.7
79513;SHT31;68962;51.980;5.678;2023-10-19T02:09:37;13.5;93.1
79513;SHT31;68962;51.980;5.678;2023-10-19T02:12:06;13.5;93.3
79513;SHT31;68962;51.980;5.678;2023-10-19T02:14:34;13.5;93.4
79513;SHT31;68962;51.980;5.678;2023-10-19T02:17:03;13.5;93.3
79513;SHT31;68962;51.980;5.678;2023-10-19T02:19:32;13.5;93.4
79513;SHT31;68962;51.980;5.678;2023-10-19T02:22:02;13.5;93.6
79513;SHT31;68962;51.980;5.678;2023-10-19T02:24:34;13.5;93.4
79513;SHT31;68962;51.980;5.678;2023-10-19T02:27:03;13.5;93.4
79513;SHT31;68962;51.980;5.678;2023-10-19T02:29:33;13.6;93.8
79513;SHT31;68962;51.980;5.678;2023-10-19T02:32:04;13.6;94.1
79513;SHT31;68962;51.980;5.678;2023-10-19T02:34:34;13.6;94.2
79513;SHT31;68962;51.980;5.678;2023-10-19T02:37:05;13.6;94.2
79513;SHT31;68962;51.980;5.678;2023-10-19T02:39:34;13.7;94.4
79513;SHT31;68962;51.980;5.678;2023-10-19T02:42:03;13.8;94.6
79513;SHT31;68962;51.980;5.678;2023-10-19T02:44:31;13.8;94.3
79513;SHT31;68962;51.980;5.678;2023-10-19T02:47:01;13.9;93.9
79513;SHT31;68962;51.980;5.678;2023-10-19T02:49:34;13.9;93.8
79513;SHT31;68962;51.980;5.678;2023-10-19T02:52:06;14.0;93.8
79513;SHT31;68962;51.980;5.678;2023-10-19T02:54:34;14.0;93.8
79513;SHT31;68962;51.980;5.678;2023-10-19T02:57:03;14.1;93.7
79513;SHT31;68962;51.980;5.678;2023-10-19T02:59:33;14.1;93.6
79513;SHT31;68962;51.980;5.678;2023-10-19T03:02:02;14.1;93.4
79513;SHT31;68962;51.980;5.678;2023-10-19T03:04:39;14.2;93.4
79513;SHT31;68962;51.980;5.678;2023-10-19T03:07:09;14.2;93.3
79513;SHT31;68962;51.980;5.678;2023-10-19T03:09:39;14.2;93.4
79513;SHT31;68962;51.980;5.678;2023-10-19T03:12:12;14.3;93.6
79513;SHT31;68962;51.980;5.678;2023-10-19T03:14:41;14.4;93.7
79513;SHT31;68962;51.980;5.678;2023-10-19T03:17:17;14.5;93.7
79513;SHT31;68962;51.980;5.678;2023-10-19T03:19:51;14.6;92.9
79513;SHT31;68962;51.980;5.678;2023-10-19T03:22:19;14.7;92.4
79513;SHT31;68962;51.980;5.678;2023-10-19T03:24:49;14.7;92.1
79513;SHT31;68962;51.980;5.678;2023-10-19T03:27:23;14.7;92.1
79513;SHT31;68962;51.980;5.678;2023-10-19T03:29:52;14.7;92.2
79513;SHT31;68962;51.980;5.678;2023-10-19T03:32:22;14.7;92.2
79513;SHT31;68962;51.980;5.678;2023-10-19T03:34:54;14.8;92.3
79513;SHT31;68962;51.980;5.678;2023-10-19T03:37:27;14.8;92.4
79513;SHT31;68962;51.980;5.678;2023-10-19T03:39:57;14.8;92.4
79513;SHT31;68962;51.980;5.678;2023-10-19T03:42:30;14.9;92.5
79513;SHT31;68962;51.980;5.678;2023-10-19T03:45:00;14.9;92.7
79513;SHT31;68962;51.980;5.678;2023-10-19T03:47:35;14.9;92.6
79513;SHT31;68962;51.980;5.678;2023-10-19T03:50:05;15.0;92.5
79513;SHT31;68962;51.980;5.678;2023-10-19T03:52:40;15.0;92.6
79513;SHT31;68962;51.980;5.678;2023-10-19T03:55:09;15.0;92.5
79513;SHT31;68962;51.980;5.678;2023-10-19T03:57:42;15.1;92.4
79513;SHT31;68962;51.980;5.678;2023-10-19T04:00:17;15.1;92.2
79513;SHT31;68962;51.980;5.678;2023-10-19T04:02:51;15.1;92.2
79513;SHT31;68962;51.980;5.678;2023-10-19T04:05:22;15.1;92.2
79513;SHT31;68962;51.980;5.678;2023-10-19T04:07:54;15.2;92.2
79513;SHT31;68962;51.980;5.678;2023-10-19T04:10:24;15.2;92.2
79513;SHT31;68962;51.980;5.678;2023-10-19T04:13:06;15.2;92.1
79513;SHT31;68962;51.980;5.678;2023-10-19T04:15:38;15.3;92.1
79513;SHT31;68962;51.980;5.678;2023-10-19T04:18:08;15.3;92.2
79513;SHT31;68962;51.980;5.678;2023-10-19T04:25:26;15.6;92.1
79513;SHT31;68962;51.980;5.678;2023-10-19T04:27:56;15.7;92.1
79513;SHT31;68962;51.980;5.678;2023-10-19T04:30:27;15.8;91.9
79513;SHT31;68962;51.980;5.678;2023-10-19T04:33:00;15.9;91.6
79513;SHT31;68962;51.980;5.678;2023-10-19T04:35:42;16.1;91.3
79513;SHT31;68962;51.980;5.678;2023-10-19T04:38:14;16.2;90.7
79513;SHT31;68962;51.980;5.678;2023-10-19T04:40:44;16.3;90.2
79513;SHT31;68962;51.980;5.678;2023-10-19T04:43:22;16.4;90.0
79513;SHT31;68962;51.980;5.678;2023-10-19T04:45:51;16.5;89.4
79513;SHT31;68962;51.980;5.678;2023-10-19T04:48:19;16.6;89.0
79513;SHT31;68962;51.980;5.678;2023-10-19T04:55:36;16.6;87.5
79513;SHT31;68962;51.980;5.678;2023-10-19T04:58:07;16.6;87.2
79513;SHT31;68962;51.980;5.678;2023-10-19T05:00:39;16.6;86.7
79513;SHT31;68962;51.980;5.678;2023-10-19T05:03:08;16.5;86.5
79513;SHT31;68962;51.980;5.678;2023-10-19T05:05:38;16.3;86.6
79513;SHT31;68962;51.980;5.678;2023-10-19T05:08:07;16.1;87.1
79513;SHT31;68962;51.980;5.678;2023-10-19T05:10:36;15.9;87.2
79513;SHT31;68962;51.980;5.678;2023-10-19T05:13:04;15.8;87.7
79513;SHT31;68962;51.980;5.678;2023-10-19T05:15:33;15.6;88.2
79513;SHT31;68962;51.980;5.678;2023-10-19T05:18:02;15.6;88.7
79513;SHT31;68962;51.980;5.678;2023-10-19T05:20:32;15.5;89.1
79513;SHT31;68962;51.980;5.678;2023-10-19T05:23:03;15.4;89.5
79513;SHT31;68962;51.980;5.678;2023-10-19T05:25:33;15.4;89.7
79513;SHT31;68962;51.980;5.678;2023-10-19T05:28:02;15.4;89.8
79513;SHT31;68962;51.980;5.678;2023-10-19T05:30:31;15.3;90.0
79513;SHT31;68962;51.980;5.678;2023-10-19T05:33:00;15.3;90.2
79513;SHT31;68962;51.980;5.678;2023-10-19T05:35:30;15.3;90.4
79513;SHT31;68962;51.980;5.678;2023-10-19T05:38:01;15.3;90.6
79513;SHT31;68962;51.980;5.678;2023-10-19T05:40:30;15.3;90.7
79513;SHT31;68962;51.980;5.678;2023-10-19T05:43:00;15.3;90.9
79513;SHT31;68962;51.980;5.678;2023-10-19T05:45:29;15.3;91.1
79513;SHT31;68962;51.980;5.678;2023-10-19T05:47:58;15.3;91.2
79513;SHT31;68962;51.980;5.678;2023-10-19T05:50:27;15.3;91.2
79513;SHT31;68962;51.980;5.678;2023-10-19T05:52:56;15.4;91.2
79513;SHT31;68962;51.980;5.678;2023-10-19T05:55:26;15.4;91.2
79513;SHT31;68962;51.980;5.678;2023-10-19T05:57:55;15.4;91.2
79513;SHT31;68962;51.980;5.678;2023-10-19T06:00:31;15.4;91.1
79513;SHT31;68962;51.980;5.678;2023-10-19T06:03:01;15.5;91.0
79513;SHT31;68962;51.980;5.678;2023-10-19T06:05:31;15.5;91.0
79513;SHT31;68962;51.980;5.678;2023-10-19T06:08:00;15.5;90.9
79513;SHT31;68962;51.980;5.678;2023-10-19T06:10:29;15.5;90.9
79513;SHT31;68962;51.980;5.678;2023-10-19T06:13:02;15.6;91.2
79513;SHT31;68962;51.980;5.678;2023-10-19T06:15:39;15.6;91.1
79513;SHT31;68962;51.980;5.678;2023-10-19T06:18:08;15.7;90.9
79513;SHT31;68962;51.980;5.678;2023-10-19T06:20:39;15.7;90.6
79513;SHT31;68962;51.980;5.678;2023-10-19T06:23:11;15.7;90.4
79513;SHT31;68962;51.980;5.678;2023-10-19T06:25:40;15.7;90.4
79513;SHT31;68962;51.980;5.678;2023-10-19T06:28:10;15.7;90.1
79513;SHT31;68962;51.980;5.678;2023-10-19T06:30:39;15.8;90.3
79513;SHT31;68962;51.980;5.678;2023-10-19T06:33:09;15.8;90.1
79513;SHT31;68962;51.980;5.678;2023-10-19T06:35:37;15.8;89.9
79513;SHT31;68962;51.980;5.678;2023-10-19T06:38:06;15.8;89.9
79513;SHT31;68962;51.980;5.678;2023-10-19T06:40:36;15.8;89.8
79513;SHT31;68962;51.980;5.678;2023-10-19T06:43:05;15.8;89.8
79513;SHT31;68962;51.980;5.678;2023-10-19T06:45:33;15.8;89.9
79513;SHT31;68962;51.980;5.678;2023-10-19T06:48:02;15.8;90.0
79513;SHT31;68962;51.980;5.678;2023-10-19T06:50:33;15.8;90.0
79513;SHT31;68962;51.980;5.678;2023-10-19T06:53:02;15.8;90.0
79513;SHT31;68962;51.980;5.678;2023-10-19T06:55:32;15.8;89.8
79513;SHT31;68962;51.980;5.678;2023-10-19T06:58:00;15.8;90.0
79513;SHT31;68962;51.980;5.678;2023-10-19T07:00:31;15.8;89.9
79513;SHT31;68962;51.980;5.678;2023-10-19T07:03:00;15.8;89.9
79513;SHT31;68962;51.980;5.678;2023-10-19T07:05:31;15.8;89.9
79513;SHT31;68962;51.980;5.678;2023-10-19T07:08:00;15.8;90.1
79513;SHT31;68962;51.980;5.678;2023-10-19T07:10:33;15.8;90.4
79513;SHT31;68962;51.980;5.678;2023-10-19T07:13:03;15.8;90.5
79513;SHT31;68962;51.980;5.678;2023-10-19T07:15:34;15.9;90.8
79513;SHT31;68962;51.980;5.678;2023-10-19T07:18:07;16.0;90.9
79513;SHT31;68962;51.980;5.678;2023-10-19T07:20:36;16.1;90.7
79513;SHT31;68962;51.980;5.678;2023-10-19T07:23:15;16.2;90.6
79513;SHT31;68962;51.980;5.678;2023-10-19T07:25:55;16.4;90.0
79513;SHT31;68962;51.980;5.678;2023-10-19T07:28:26;16.4;89.4
79513;SHT31;68962;51.980;5.678;2023-10-19T07:31:00;16.5;89.4
79513;SHT31;68962;51.980;5.678;2023-10-19T07:33:33;16.6;89.1
79513;SHT31;68962;51.980;5.678;2023-10-19T07:36:22;16.6;88.7
79513;SHT31;68962;51.980;5.678;2023-10-19T07:38:52;16.7;88.7
79513;SHT31;68962;51.980;5.678;2023-10-19T07:41:23;16.8;88.5
79513;SHT31;68962;51.980;5.678;2023-10-19T07:43:55;16.9;88.2
79513;SHT31;68962;51.980;5.678;2023-10-19T07:46:23;16.9;88.2
79513;SHT31;68962;51.980;5.678;2023-10-19T07:48:54;17.0;87.6
79513;SHT31;68962;51.980;5.678;2023-10-19T07:51:25;17.0;87.2
79513;SHT31;68962;51.980;5.678;2023-10-19T07:53:54;17.0;87.0
79513;SHT31;68962;51.980;5.678;2023-10-19T07:56:23;17.0;86.9
79513;SHT31;68962;51.980;5.678;2023-10-19T07:58:52;17.0;86.9
79513;SHT31;68962;51.980;5.678;2023-10-19T08:01:20;17.0;87.0
79513;SHT31;68962;51.980;5.678;2023-10-19T08:03:49;16.9;86.9
79513;SHT31;68962;51.980;5.678;2023-10-19T08:06:18;16.9;87.2
79513;SHT31;68962;51.980;5.678;2023-10-19T08:08:47;16.9;87.4
79513;SHT31;68962;51.980;5.678;2023-10-19T08:11:16;16.9;87.5
79513;SHT31;68962;51.980;5.678;2023-10-19T08:13:47;16.9;87.8
79513;SHT31;68962;51.980;5.678;2023-10-19T08:16:16;16.9;87.9
79513;SHT31;68962;51.980;5.678;2023-10-19T08:18:47;16.9;88.0
79513;SHT31;68962;51.980;5.678;2023-10-19T08:21:15;17.0;87.7
79513;SHT31;68962;51.980;5.678;2023-10-19T08:23:44;17.0;87.9
79513;SHT31;68962;51.980;5.678;2023-10-19T08:26:14;17.0;88.0
79513;SHT31;68962;51.980;5.678;2023-10-19T08:28:43;17.0;87.8
79513;SHT31;68962;51.980;5.678;2023-10-19T08:31:12;17.0;87.6
79513;SHT31;68962;51.980;5.678;2023-10-19T08:33:41;17.1;87.7
79513;SHT31;68962;51.980;5.678;2023-10-19T08:36:19;17.1;87.7
79513;SHT31;68962;51.980;5.678;2023-10-19T08:38:48;17.2;87.5
79513;SHT31;68962;51.980;5.678;2023-10-19T08:41:21;17.2;87.4
79513;SHT31;68962;51.980;5.678;2023-10-19T08:43:49;17.3;87.3
79513;SHT31;68962;51.980;5.678;2023-10-19T08:46:25;17.3;87.4
79513;SHT31;68962;51.980;5.678;2023-10-19T08:48:59;17.4;87.2
79513;SHT31;68962;51.980;5.678;2023-10-19T08:51:27;17.4;87.1
79513;SHT31;68962;51.980;5.678;2023-10-19T08:53:56;17.4;87.4
79513;SHT31;68962;51.980;5.678;2023-10-19T08:56:28;17.4;87.4
79513;SHT31;68962;51.980;5.678;2023-10-19T08:59:12;17.5;87.4
79513;SHT31;68962;51.980;5.678;2023-10-19T09:02:02;17.6;87.4
79513;SHT31;68962;51.980;5.678;2023-10-19T09:04:43;17.8;87.1
79513;SHT31;68962;51.980;5.678;2023-10-19T09:07:13;17.8;86.4
79513;SHT31;68962;51.980;5.678;2023-10-19T09:09:44;17.8;86.4
79513;SHT31;68962;51.980;5.678;2023-10-19T09:12:14;17.8;86.2
79513;SHT31;68962;51.980;5.678;2023-10-19T09:14:42;17.8;86.2
79513;SHT31;68962;51.980;5.678;2023-10-19T09:17:12;17.8;86.4
79513;SHT31;68962;51.980;5.678;2023-10-19T09:19:42;17.8;86.8
79513;SHT31;68962;51.980;5.678;2023-10-19T09:22:11;17.9;87.0
79513;SHT31;68962;51.980;5.678;2023-10-19T09:24:49;17.9;86.9
79513;SHT31;68962;51.980;5.678;2023-10-19T09:27:20;18.0;86.3
79513;SHT31;68962;51.980;5.678;2023-10-19T09:29:49;18.0;87.2
79513;SHT31;68962;51.980;5.678;2023-10-19T09:32:18;18.1;88.4
79513;SHT31;68962;51.980;5.678;2023-10-19T09:34:50;18.5;90.2
79513;SHT31;68962;51.980;5.678;2023-10-19T09:37:20;19.0;87.6
79513;SHT31;68962;51.980;5.678;2023-10-19T09:39:50;19.2;85.4
79513;SHT31;68962;51.980;5.678;2023-10-19T09:42:19;19.4;84.9
79513;SHT31;68962;51.980;5.678;2023-10-19T09:44:59;19.6;84.5
79513;SHT31;68962;51.980;5.678;2023-10-19T09:47:35;19.7;83.2
79513;SHT31;68962;51.980;5.678;2023-10-19T09:50:06;19.9;84.3
79513;SHT31;68962;51.980;5.678;2023-10-19T09:52:36;20.2;81.7
79513;SHT31;68962;51.980;5.678;2023-10-19T09:55:12;20.5;79.7
79513;SHT31;68962;51.980;5.678;2023-10-19T09:57:48;20.7;76.8
79513;SHT31;68962;51.980;5.678;2023-10-19T10:00:20;20.9;75.6
79513;SHT31;68962;51.980;5.678;2023-10-19T10:02:51;21.3;73.5
79513;SHT31;68962;51.980;5.678;2023-10-19T10:05:46;21.9;70.9
79513;SHT31;68962;51.980;5.678;2023-10-19T10:08:51;22.2;67.5
79513;SHT31;68962;51.980;5.678;2023-10-19T10:11:22;22.4;65.2
79513;SHT31;68962;51.980;5.678;2023-10-19T10:13:54;22.6;64.7
79513;SHT31;68962;51.980;5.678;2023-10-19T10:16:24;23.0;61.5
79513;SHT31;68962;51.980;5.678;2023-10-19T10:18:58;23.3;60.9
79513;SHT31;68962;51.980;5.678;2023-10-19T10:21:29;23.6;60.0
79513;SHT31;68962;51.980;5.678;2023-10-19T10:24:03;23.8;59.3
79513;SHT31;68962;51.980;5.678;2023-10-19T10:26:58;23.8;57.8
79513;SHT31;68962;51.980;5.678;2023-10-19T10:29:32;23.6;57.6
79513;SHT31;68962;51.980;5.678;2023-10-19T10:32:03;23.5;58.3
79513;SHT31;68962;51.980;5.678;2023-10-19T10:34:45;23.2;58.7
79513;SHT31;68962;51.980;5.678;2023-10-19T10:37:16;23.0;59.1
79513;SHT31;68962;51.980;5.678;2023-10-19T10:39:45;22.8;60.2
79513;SHT31;68962;51.980;5.678;2023-10-19T10:42:16;22.7;59.5
79513;SHT31;68962;51.980;5.678;2023-10-19T10:44:47;22.5;60.1
79513;SHT31;68962;51.980;5.678;2023-10-19T10:47:23;22.4;60.6
79513;SHT31;68962;51.980;5.678;2023-10-19T10:49:58;22.3;60.8
79513;SHT31;68962;51.980;5.678;2023-10-19T10:52:29;22.2;61.9
79513;SHT31;68962;51.980;5.678;2023-10-19T10:55:09;22.0;62.4
79513;SHT31;68962;51.980;5.678;2023-10-19T10:57:40;21.8;62.4
79513;SHT31;68962;51.980;5.678;2023-10-19T11:00:12;21.6;62.8
79513;SHT31;68962;51.980;5.678;2023-10-19T11:02:47;21.4;63.7
79513;SHT31;68962;51.980;5.678;2023-10-19T11:05:18;21.3;64.7
79513;SHT31;68962;51.980;5.678;2023-10-19T11:08:10;21.3;65.0
79513;SHT31;68962;51.980;5.678;2023-10-19T11:10:45;21.2;65.8
79513;SHT31;68962;51.980;5.678;2023-10-19T11:13:26;21.3;65.3
79513;SHT31;68962;51.980;5.678;2023-10-19T11:15:57;21.4;65.9
79513;SHT31;68962;51.980;5.678;2023-10-19T11:18:33;21.6;65.2
79513;SHT31;68962;51.980;5.678;2023-10-19T11:21:12;22.2;63.4
79513;SHT31;68962;51.980;5.678;2023-10-19T11:23:51;22.6;60.5
79513;SHT31;68962;51.980;5.678;2023-10-19T11:26:23;22.7;60.6
79513;SHT31;68962;51.980;5.678;2023-10-19T11:29:01;22.7;59.7
79513;SHT31;68962;51.980;5.678;2023-10-19T11:31:33;22.6;60.7
79513;SHT31;68962;51.980;5.678;2023-10-19T11:34:08;22.5;60.3
79513;SHT31;68962;51.980;5.678;2023-10-19T11:36:45;22.5;60.7
79513;SHT31;68962;51.980;5.678;2023-10-19T11:39:17;22.5;61.0
79513;SHT31;68962;51.980;5.678;2023-10-19T11:41:50;22.6;60.5
79513;SHT31;68962;51.980;5.678;2023-10-19T11:44:20;22.6;60.4
79513;SHT31;68962;51.980;5.678;2023-10-19T11:46:48;22.6;59.7
79513;SHT31;68962;51.980;5.678;2023-10-19T11:49:17;22.6;59.5
79513;SHT31;68962;51.980;5.678;2023-10-19T11:51:46;22.8;59.2
79513;SHT31;68962;51.980;5.678;2023-10-19T11:54:16;22.9;58.1
79513;SHT31;68962;51.980;5.678;2023-10-19T11:56:45;22.9;57.8
79513;SHT31;68962;51.980;5.678;2023-10-19T11:59:18;22.9;57.8
79513;SHT31;68962;51.980;5.678;2023-10-19T12:01:59;22.9;57.2
79513;SHT31;68962;51.980;5.678;2023-10-19T12:04:32;22.9;56.3
79513;SHT31;68962;51.980;5.678;2023-10-19T12:07:25;22.7;57.4
79513;SHT31;68962;51.980;5.678;2023-10-19T12:10:00;22.6;58.6
79513;SHT31;68962;51.980;5.678;2023-10-19T12:12:34;22.5;58.2
79513;SHT31;68962;51.980;5.678;2023-10-19T12:15:06;22.4;58.8
79513;SHT31;68962;51.980;5.678;2023-10-19T12:17:43;22.3;58.9
79513;SHT31;68962;51.980;5.678;2023-10-19T12:20:14;22.3;59.7
79513;SHT31;68962;51.980;5.678;2023-10-19T12:23:07;22.2;59.0
79513;SHT31;68962;51.980;5.678;2023-10-19T12:25:36;22.2;60.0
79513;SHT31;68962;51.980;5.678;2023-10-19T12:28:09;22.2;60.4
79513;SHT31;68962;51.980;5.678;2023-10-19T12:35:35;22.1;60.2
79513;SHT31;68962;51.980;5.678;2023-10-19T12:38:31;22.1;60.3
79513;SHT31;68962;51.980;5.678;2023-10-19T12:45:53;22.0;60.3
79513;SHT31;68962;51.980;5.678;2023-10-19T12:48:24;22.0;60.4
79513;SHT31;68962;51.980;5.678;2023-10-19T12:50:59;21.9;60.6
79513;SHT31;68962;51.980;5.678;2023-10-19T12:53:34;21.8;61.0
79513;SHT31;68962;51.980;5.678;2023-10-19T12:56:07;21.8;61.1
79513;SHT31;68962;51.980;5.678;2023-10-19T12:59:03;21.7;61.2
79513;SHT31;68962;51.980;5.678;2023-10-19T13:01:37;21.6;61.4
79513;SHT31;68962;51.980;5.678;2023-10-19T13:04:07;21.5;61.2
79513;SHT31;68962;51.980;5.678;2023-10-19T13:06:43;21.4;61.3
79513;SHT31;68962;51.980;5.678;2023-10-19T13:09:14;21.3;62.2
79513;SHT31;68962;51.980;5.678;2023-10-19T13:11:50;21.2;62.4
79513;SHT31;68962;51.980;5.678;2023-10-19T13:14:19;21.1;63.8
79513;SHT31;68962;51.980;5.678;2023-10-19T13:16:47;20.9;67.0
79513;SHT31;68962;51.980;5.678;2023-10-19T13:19:20;20.5;67.7
79513;SHT31;68962;51.980;5.678;2023-10-19T13:21:52;20.2;69.2
79513;SHT31;68962;51.980;5.678;2023-10-19T13:24:25;19.9;70.1
79513;SHT31;68962;51.980;5.678;2023-10-19T13:26:54;19.7;72.6
79513;SHT31;68962;51.980;5.678;2023-10-19T13:29:23;19.5;73.2
79513;SHT31;68962;51.980;5.678;2023-10-19T13:31:56;19.3;74.1
79513;SHT31;68962;51.980;5.678;2023-10-19T13:34:24;19.2;73.8
79513;SHT31;68962;51.980;5.678;2023-10-19T13:36:53;19.1;74.9
79513;SHT31;68962;51.980;5.678;2023-10-19T13:39:23;19.0;74.6
79513;SHT31;68962;51.980;5.678;2023-10-19T13:41:54;19.0;75.1
79513;SHT31;68962;51.980;5.678;2023-10-19T13:44:24;18.9;75.7
79513;SHT31;68962;51.980;5.678;2023-10-19T13:46:53;18.9;75.8
79513;SHT31;68962;51.980;5.678;2023-10-19T13:49:24;18.8;76.0
79513;SHT31;68962;51.980;5.678;2023-10-19T13:51:53;18.8;76.3
79513;SHT31;68962;51.980;5.678;2023-10-19T13:54:22;18.8;76.2
79513;SHT31;68962;51.980;5.678;2023-10-19T13:56:52;18.8;76.4
79513;SHT31;68962;51.980;5.678;2023-10-19T13:59:22;18.8;76.5
79513;SHT31;68962;51.980;5.678;2023-10-19T14:01:52;18.8;76.6
79513;SHT31;68962;51.980;5.678;2023-10-19T14:04:20;18.8;76.3
79513;SHT31;68962;51.980;5.678;2023-10-19T14:06:49;18.8;76.5
79513;SHT31;68962;51.980;5.678;2023-10-19T14:09:18;18.8;76.2
79513;SHT31;68962;51.980;5.678;2023-10-19T14:11:49;18.8;76.0
79513;SHT31;68962;51.980;5.678;2023-10-19T14:14:18;18.9;76.3
79513;SHT31;68962;51.980;5.678;2023-10-19T14:16:47;18.9;75.6
79513;SHT31;68962;51.980;5.678;2023-10-19T14:19:20;19.0;75.2
79513;SHT31;68962;51.980;5.678;2023-10-19T14:21:51;19.0;74.9
79513;SHT31;68962;51.980;5.678;2023-10-19T14:24:20;18.9;75.2
79513;SHT31;68962;51.980;5.678;2023-10-19T14:26:48;18.9;75.6
79513;SHT31;68962;51.980;5.678;2023-10-19T14:29:17;18.9;75.4
79513;SHT31;68962;51.980;5.678;2023-10-19T14:31:46;18.9;75.5
79513;SHT31;68962;51.980;5.678;2023-10-19T14:34:15;18.9;75.8
79513;SHT31;68962;51.980;5.678;2023-10-19T14:36:44;18.9;75.6
79513;SHT31;68962;51.980;5.678;2023-10-19T14:39:14;18.9;76.1
79513;SHT31;68962;51.980;5.678;2023-10-19T14:41:46;18.8;76.3
79513;SHT31;68962;51.980;5.678;2023-10-19T14:44:16;18.8;76.5
79513;SHT31;68962;51.980;5.678;2023-10-19T14:46:45;18.8;76.7
79513;SHT31;68962;51.980;5.678;2023-10-19T14:49:18;18.8;77.1
79513;SHT31;68962;51.980;5.678;2023-10-19T14:51:47;18.7;77.1
79513;SHT31;68962;51.980;5.678;2023-10-19T14:54:18;18.7;77.7
79513;SHT31;68962;51.980;5.678;2023-10-19T14:56:46;18.7;77.6
79513;SHT31;68962;51.980;5.678;2023-10-19T14:59:15;18.8;77.6
79513;SHT31;68962;51.980;5.678;2023-10-19T15:01:45;18.8;77.3
79513;SHT31;68962;51.980;5.678;2023-10-19T15:04:13;18.8;77.2
79513;SHT31;68962;51.980;5.678;2023-10-19T15:06:42;18.7;77.6
79513;SHT31;68962;51.980;5.678;2023-10-19T15:09:10;18.6;77.8
79513;SHT31;68962;51.980;5.678;2023-10-19T15:11:47;18.5;78.3
79513;SHT31;68962;51.980;5.678;2023-10-19T15:14:15;18.5;78.4
79513;SHT31;68962;51.980;5.678;2023-10-19T15:16:44;18.4;78.9
79513;SHT31;68962;51.980;5.678;2023-10-19T15:19:13;18.3;79.4
79513;SHT31;68962;51.980;5.678;2023-10-19T15:21:44;18.2;80.0
79513;SHT31;68962;51.980;5.678;2023-10-19T15:24:13;18.1;79.9
79513;SHT31;68962;51.980;5.678;2023-10-19T15:26:43;18.0;80.2
79513;SHT31;68962;51.980;5.678;2023-10-19T15:29:11;17.9;80.3
79513;SHT31;68962;51.980;5.678;2023-10-19T15:31:40;17.9;80.7
79513;SHT31;68962;51.980;5.678;2023-10-19T15:34:09;17.8;81.1
79513;SHT31;68962;51.980;5.678;2023-10-19T15:36:39;17.8;82.2
79513;SHT31;68962;51.980;5.678;2023-10-19T15:39:08;17.8;81.8
79513;SHT31;68962;51.980;5.678;2023-10-19T15:41:37;17.8;82.3
79513;SHT31;68962;51.980;5.678;2023-10-19T15:44:07;17.7;82.2
79513;SHT31;68962;51.980;5.678;2023-10-19T15:46:43;17.7;81.9
79513;SHT31;68962;51.980;5.678;2023-10-19T15:49:15;17.7;81.6
79513;SHT31;68962;51.980;5.678;2023-10-19T15:51:44;17.7;82.0
79513;SHT31;68962;51.980;5.678;2023-10-19T15:54:14;17.7;81.6
79513;SHT31;68962;51.980;5.678;2023-10-19T15:56:43;17.7;81.6
79513;SHT31;68962;51.980;5.678;2023-10-19T15:59:14;17.7;81.4
79513;SHT31;68962;51.980;5.678;2023-10-19T16:01:45;17.7;81.4
79513;SHT31;68962;51.980;5.678;2023-10-19T16:04:16;17.7;81.2
79513;SHT31;68962;51.980;5.678;2023-10-19T16:06:45;17.6;81.1
79513;SHT31;68962;51.980;5.678;2023-10-19T16:09:15;17.6;80.9
79513;SHT31;68962;51.980;5.678;2023-10-19T16:11:47;17.6;80.8
79513;SHT31;68962;51.980;5.678;2023-10-19T16:14:18;17.6;80.7
79513;SHT31;68962;51.980;5.678;2023-10-19T16:16:47;17.6;80.7
79513;SHT31;68962;51.980;5.678;2023-10-19T16:19:17;17.6;80.8
79513;SHT31;68962;51.980;5.678;2023-10-19T16:21:46;17.6;80.7
79513;SHT31;68962;51.980;5.678;2023-10-19T16:24:15;17.5;80.6
79513;SHT31;68962;51.980;5.678;2023-10-19T16:26:44;17.5;80.8
79513;SHT31;68962;51.980;5.678;2023-10-19T16:29:15;17.5;80.8
79513;SHT31;68962;51.980;5.678;2023-10-19T16:31:45;17.5;80.7
79513;SHT31;68962;51.980;5.678;2023-10-19T16:34:16;17.5;80.6
79513;SHT31;68962;51.980;5.678;2023-10-19T16:36:45;17.4;80.7
79513;SHT31;68962;51.980;5.678;2023-10-19T16:39:32;17.4;81.0
79513;SHT31;68962;51.980;5.678;2023-10-19T16:44:27;17.4;81.3
79513;SHT31;68962;51.980;5.678;2023-10-19T16:47:12;17.5;81.2
79513;SHT31;68962;51.980;5.678;2023-10-19T16:49:41;17.6;81.0
79513;SHT31;68962;51.980;5.678;2023-10-19T16:52:21;17.6;80.6
79513;SHT31;68962;51.980;5.678;2023-10-19T16:54:52;17.7;80.1
79513;SHT31;68962;51.980;5.678;2023-10-19T16:57:39;17.8;79.8